sensor_id;sensor_type;location;lat;lon;timestamp;temperature;humidity
77865;DHT22;67061;48.524;9.040;2023-03-01T00:01:00;-3.10;90.60
77865;DHT22;67061;48.524;9.040;2023-03-01T00:03:28;-3.20;90.70
77865;DHT22;67061;48.524;9.040;2023-03-01T00:05:55;-3.20;91.20
77865;DHT22;67061;48.524;9.040;2023-03-01T00:08:22;-3.20;91.20
77865;DHT22;67061;48.524;9.040;2023-03-01T00:11:00;-3.20;91.50
77865;DHT22;67061;48.524;9.040;2023-03-01T00:13:27;-3.20;91.40
77865;DHT22;67061;48.524;9.040;2023-03-01T00:15:54;-3.30;91.80
77865;DHT22;67061;48.524;9.040;2023-03-01T00:18:21;-3.40;91.80
77865;DHT22;67061;48.524;9.040;2023-03-01T00:20:50;-3.40;91.90
77865;DHT22;67061;48.524;9.040;2023-03-01T00:23:17;-3.40;92.20
77865;DHT22;67061;48.524;9.040;2023-03-01T00:25:44;-3.40;92.20
77865;DHT22;67061;48.524;9.040;2023-03-01T00:28:13;-3.40;91.80
77865;DHT22;67061;48.524;9.040;2023-03-01T00:30:40;-3.40;92.00
77865;DHT22;67061;48.524;9.040;2023-03-01T00:33:07;-3.40;91.80
77865;DHT22;67061;48.524;9.040;2023-03-01T00:35:34;-3.50;92.00
77865;DHT22;67061;48.524;9.040;2023-03-01T00:38:01;-3.60;92.30
77865;DHT22;67061;48.524;9.040;2023-03-01T00:40:31;-3.60;92.50
77865;DHT22;67061;48.524;9.040;2023-03-01T00:42:58;-3.60;92.60
77865;DHT22;67061;48.524;9.040;2023-03-01T00:45:27;-3.60;92.90
77865;DHT22;67061;48.524;9.040;2023-03-01T00:47:54;-3.60;92.70
77865;DHT22;67061;48.524;9.040;2023-03-01T00:50:21;-3.80;93.20
77865;DHT22;67061;48.524;9.040;2023-03-01T00:52:52;-3.80;93.20
77865;DHT22;67061;48.524;9.040;2023-03-01T00:55:19;-3.80;93.90
77865;DHT22;67061;48.524;9.040;2023-03-01T00:57:46;-3.80;93.60
77865;DHT22;67061;48.524;9.040;2023-03-01T01:00:14;-3.80;93.00
77865;DHT22;67061;48.524;9.040;2023-03-01T01:02:42;-3.80;93.40
77865;DHT22;67061;48.524;9.040;2023-03-01T01:05:09;-3.80;93.50
77865;DHT22;67061;48.524;9.040;2023-03-01T01:07:37;-3.80;93.50
77865;DHT22;67061;48.524;9.040;2023-03-01T01:10:06;-3.90;93.20
77865;DHT22;67061;48.524;9.040;2023-03-01T01:12:33;-4.00;93.30
77865;DHT22;67061;48.524;9.040;2023-03-01T01:14:59;-4.00;94.00
77865;DHT22;67061;48.524;9.040;2023-03-01T01:17:26;-4.10;94.40
77865;DHT22;67061;48.524;9.040;2023-03-01T01:19:55;-4.10;94.30
77865;DHT22;67061;48.524;9.040;2023-03-01T01:22:22;-4.10;94.40
77865;DHT22;67061;48.524;9.040;2023-03-01T01:24:49;-4.10;94.70
77865;DHT22;67061;48.524;9.040;2023-03-01T01:27:16;-4.10;94.70
77865;DHT22;67061;48.524;9.040;2023-03-01T01:29:42;-4.10;94.60
77865;DHT22;67061;48.524;9.040;2023-03-01T01:32:09;-4.20;94.90
77865;DHT22;67061;48.524;9.040;2023-03-01T01:34:38;-4.30;95.50
77865;DHT22;67061;48.524;9.040;2023-03-01T01:37:07;-4.40;95.70
77865;DHT22;67061;48.524;9.040;2023-03-01T01:39:34;-4.40;96.20
77865;DHT22;67061;48.524;9.040;2023-03-01T01:42:01;-4.40;95.90
77865;DHT22;67061;48.524;9.040;2023-03-01T01:44:29;-4.40;96.10
77865;DHT22;67061;48.524;9.040;2023-03-01T01:46:58;-4.60;96.20
77865;DHT22;67061;48.524;9.040;2023-03-01T01:49:31;-4.60;96.70
77865;DHT22;67061;48.524;9.040;2023-03-01T01:52:07;-4.60;97.00
77865;DHT22;67061;48.524;9.040;2023-03-01T01:54:41;-4.60;97.40
77865;DHT22;67061;48.524;9.040;2023-03-01T01:57:14;-4.60;97.30
77865;DHT22;67061;48.524;9.040;2023-03-01T01:59:45;-4.50;97.30
77865;DHT22;67061;48.524;9.040;2023-03-01T02:02:13;-4.30;97.20
77865;DHT22;67061;48.524;9.040;2023-03-01T02:04:41;-4.10;97.00
77865;DHT22;67061;48.524;9.040;2023-03-01T02:07:14;-4.10;96.40
77865;DHT22;67061;48.524;9.040;2023-03-01T02:09:45;-4.00;95.80
77865;DHT22;67061;48.524;9.040;2023-03-01T02:12:14;-3.90;95.70
77865;DHT22;67061;48.524;9.040;2023-03-01T02:14:41;-3.80;95.30
77865;DHT22;67061;48.524;9.040;2023-03-01T02:17:08;-3.80;95.20
77865;DHT22;67061;48.524;9.040;2023-03-01T02:19:44;-3.70;95.20
77865;DHT22;67061;48.524;9.040;2023-03-01T02:22:20;-3.60;94.90
77865;DHT22;67061;48.524;9.040;2023-03-01T02:24:58;-3.50;94.00
77865;DHT22;67061;48.524;9.040;2023-03-01T02:27:36;-3.40;93.90
77865;DHT22;67061;48.524;9.040;2023-03-01T02:30:07;-3.50;93.80
77865;DHT22;67061;48.524;9.040;2023-03-01T02:32:39;-3.50;93.90
77865;DHT22;67061;48.524;9.040;2023-03-01T02:35:09;-3.40;94.30
77865;DHT22;67061;48.524;9.040;2023-03-01T02:37:37;-3.30;94.00
77865;DHT22;67061;48.524;9.040;2023-03-01T02:40:08;-3.30;94.10
77865;DHT22;67061;48.524;9.040;2023-03-01T02:42:42;-3.20;93.70
77865;DHT22;67061;48.524;9.040;2023-03-01T02:45:13;-3.20;93.50
77865;DHT22;67061;48.524;9.040;2023-03-01T02:47:40;-3.20;93.20
77865;DHT22;67061;48.524;9.040;2023-03-01T02:50:22;-3.10;93.00
77865;DHT22;67061;48.524;9.040;2023-03-01T02:52:56;-3.10;92.80
77865;DHT22;67061;48.524;9.040;2023-03-01T02:55:24;-3.00;92.70
77865;DHT22;67061;48.524;9.040;2023-03-01T02:57:51;-3.00;92.60
77865;DHT22;67061;48.524;9.040;2023-03-01T03:00:23;-3.00;92.60
77865;DHT22;67061;48.524;9.040;2023-03-01T03:02:53;-3.00;92.90
77865;DHT22;67061;48.524;9.040;2023-03-01T03:05:24;-3.00;92.50
77865;DHT22;67061;48.524;9.040;2023-03-01T03:07:51;-2.90;92.90
77865;DHT22;67061;48.524;9.040;2023-03-01T03:10:20;-2.90;92.50
77865;DHT22;67061;48.524;9.040;2023-03-01T03:12:49;-2.90;92.40
77865;DHT22;67061;48.524;9.040;2023-03-01T03:15:17;-2.80;92.60
77865;DHT22;67061;48.524;9.040;2023-03-01T03:17:47;-2.80;92.50
77865;DHT22;67061;48.524;9.040;2023-03-01T03:20:17;-2.70;92.70
77865;DHT22;67061;48.524;9.040;2023-03-01T03:22:46;-2.70;92.50
77865;DHT22;67061;48.524;9.040;2023-03-01T03:25:14;-2.60;92.10
77865;DHT22;67061;48.524;9.040;2023-03-01T03:27:43;-2.60;92.10
77865;DHT22;67061;48.524;9.040;2023-03-01T03:30:13;-2.60;92.10
77865;DHT22;67061;48.524;9.040;2023-03-01T03:32:42;-2.50;91.90
77865;DHT22;67061;48.524;9.040;2023-03-01T03:35:20;-2.50;91.90
77865;DHT22;67061;48.524;9.040;2023-03-01T03:37:48;-2.40;91.50
77865;DHT22;67061;48.524;9.040;2023-03-01T03:40:34;-2.40;91.50
77865;DHT22;67061;48.524;9.040;2023-03-01T03:43:01;-2.40;91.60
77865;DHT22;67061;48.524;9.040;2023-03-01T03:45:29;-2.30;91.60
77865;DHT22;67061;48.524;9.040;2023-03-01T03:47:59;-2.30;91.20
77865;DHT22;67061;48.524;9.040;2023-03-01T03:50:27;-2.30;90.80
77865;DHT22;67061;48.524;9.040;2023-03-01T03:52:54;-2.20;90.80
77865;DHT22;67061;48.524;9.040;2023-03-01T03:55:21;-2.20;90.50
77865;DHT22;67061;48.524;9.040;2023-03-01T03:57:48;-2.20;90.40
77865;DHT22;67061;48.524;9.040;2023-03-01T04:00:20;-2.10;90.50
77865;DHT22;67061;48.524;9.040;2023-03-01T04:02:50;-2.10;90.20
77865;DHT22;67061;48.524;9.040;2023-03-01T04:05:18;-2.10;90.10
77865;DHT22;67061;48.524;9.040;2023-03-01T04:07:46;-2.10;90.50
77865;DHT22;67061;48.524;9.040;2023-03-01T04:10:15;-2.00;90.40
77865;DHT22;67061;48.524;9.040;2023-03-01T04:12:43;-2.00;90.10
77865;DHT22;67061;48.524;9.040;2023-03-01T04:15:11;-2.10;90.10
77865;DHT22;67061;48.524;9.040;2023-03-01T04:17:42;-2.10;90.40
77865;DHT22;67061;48.524;9.040;2023-03-01T04:20:11;-2.10;91.10
77865;DHT22;67061;48.524;9.040;2023-03-01T04:22:39;-2.00;90.40
77865;DHT22;67061;48.524;9.040;2023-03-01T04:25:08;-2.00;90.30
77865;DHT22;67061;48.524;9.040;2023-03-01T04:27:40;-1.90;89.90
77865;DHT22;67061;48.524;9.040;2023-03-01T04:30:08;-1.90;90.00
77865;DHT22;67061;48.524;9.040;2023-03-01T04:32:36;-1.80;88.70
77865;DHT22;67061;48.524;9.040;2023-03-01T04:35:03;-1.80;88.70
77865;DHT22;67061;48.524;9.040;2023-03-01T04:37:30;-1.70;87.80
77865;DHT22;67061;48.524;9.040;2023-03-01T04:39:57;-1.60;87.30
77865;DHT22;67061;48.524;9.040;2023-03-01T04:42:25;-1.60;86.90
77865;DHT22;67061;48.524;9.040;2023-03-01T04:44:52;-1.60;86.80
77865;DHT22;67061;48.524;9.040;2023-03-01T04:47:19;-1.50;86.50
77865;DHT22;67061;48.524;9.040;2023-03-01T04:49:46;-1.50;86.20
77865;DHT22;67061;48.524;9.040;2023-03-01T04:52:13;-1.50;86.00
77865;DHT22;67061;48.524;9.040;2023-03-01T04:54:40;-1.50;85.60
77865;DHT22;67061;48.524;9.040;2023-03-01T04:57:07;-1.50;85.80
77865;DHT22;67061;48.524;9.040;2023-03-01T04:59:35;-1.50;85.80
77865;DHT22;67061;48.524;9.040;2023-03-01T05:02:02;-1.40;85.80
77865;DHT22;67061;48.524;9.040;2023-03-01T05:04:30;-1.40;85.30
77865;DHT22;67061;48.524;9.040;2023-03-01T05:06:57;-1.40;85.20
77865;DHT22;67061;48.524;9.040;2023-03-01T05:09:24;-1.30;85.50
77865;DHT22;67061;48.524;9.040;2023-03-01T05:11:51;-1.30;85.40
77865;DHT22;67061;48.524;9.040;2023-03-01T05:14:18;-1.30;85.00
77865;DHT22;67061;48.524;9.040;2023-03-01T05:16:46;-1.30;84.90
77865;DHT22;67061;48.524;9.040;2023-03-01T05:19:13;-1.30;85.10
77865;DHT22;67061;48.524;9.040;2023-03-01T05:21:42;-1.40;85.10
77865;DHT22;67061;48.524;9.040;2023-03-01T05:24:23;-1.50;85.30
77865;DHT22;67061;48.524;9.040;2023-03-01T05:27:06;-1.40;85.30
77865;DHT22;67061;48.524;9.040;2023-03-01T05:29:34;-1.40;85.20
77865;DHT22;67061;48.524;9.040;2023-03-01T05:32:03;-1.40;85.20
77865;DHT22;67061;48.524;9.040;2023-03-01T05:34:31;-1.40;85.00
77865;DHT22;67061;48.524;9.040;2023-03-01T05:36:59;-1.30;85.30
77865;DHT22;67061;48.524;9.040;2023-03-01T05:39:27;-1.30;85.10
77865;DHT22;67061;48.524;9.040;2023-03-01T05:41:55;-1.30;85.30
77865;DHT22;67061;48.524;9.040;2023-03-01T05:44:24;-1.30;85.00
77865;DHT22;67061;48.524;9.040;2023-03-01T05:46:51;-1.30;85.10
77865;DHT22;67061;48.524;9.040;2023-03-01T05:49:20;-1.30;85.50
77865;DHT22;67061;48.524;9.040;2023-03-01T05:51:50;-1.30;85.30
77865;DHT22;67061;48.524;9.040;2023-03-01T05:54:19;-1.30;85.10
77865;DHT22;67061;48.524;9.040;2023-03-01T05:56:47;-1.30;85.50
77865;DHT22;67061;48.524;9.040;2023-03-01T05:59:14;-1.30;85.50
77865;DHT22;67061;48.524;9.040;2023-03-01T06:01:42;-1.20;85.00
77865;DHT22;67061;48.524;9.040;2023-03-01T06:04:09;-1.10;84.80
77865;DHT22;67061;48.524;9.040;2023-03-01T06:06:37;-1.10;85.00
77865;DHT22;67061;48.524;9.040;2023-03-01T06:09:05;-1.10;84.70
77865;DHT22;67061;48.524;9.040;2023-03-01T06:11:34;-1.10;84.70
77865;DHT22;67061;48.524;9.040;2023-03-01T06:14:01;-1.00;84.20
77865;DHT22;67061;48.524;9.040;2023-03-01T06:16:28;-1.00;84.30
77865;DHT22;67061;48.524;9.040;2023-03-01T06:18:54;-1.00;84.00
77865;DHT22;67061;48.524;9.040;2023-03-01T06:21:21;-1.00;84.20
77865;DHT22;67061;48.524;9.040;2023-03-01T06:23:50;-0.90;83.70
77865;DHT22;67061;48.524;9.040;2023-03-01T06:26:17;-0.90;83.30
77865;DHT22;67061;48.524;9.040;2023-03-01T06:28:44;-0.80;83.50
77865;DHT22;67061;48.524;9.040;2023-03-01T06:31:12;-0.80;83.10
77865;DHT22;67061;48.524;9.040;2023-03-01T06:33:39;-0.70;83.20
77865;DHT22;67061;48.524;9.040;2023-03-01T06:36:07;-0.70;83.50
77865;DHT22;67061;48.524;9.040;2023-03-01T06:38:35;-0.70;83.70
77865;DHT22;67061;48.524;9.040;2023-03-01T06:41:04;-0.70;83.60
77865;DHT22;67061;48.524;9.040;2023-03-01T06:43:30;-0.70;83.70
77865;DHT22;67061;48.524;9.040;2023-03-01T06:45:57;-0.70;83.50
77865;DHT22;67061;48.524;9.040;2023-03-01T06:48:24;-0.70;83.20
77865;DHT22;67061;48.524;9.040;2023-03-01T06:50:51;-0.80;83.40
77865;DHT22;67061;48.524;9.040;2023-03-01T06:53:18;-0.90;83.80
77865;DHT22;67061;48.524;9.040;2023-03-01T06:55:45;-0.80;83.90
77865;DHT22;67061;48.524;9.040;2023-03-01T06:58:13;-0.90;83.90
77865;DHT22;67061;48.524;9.040;2023-03-01T07:00:40;-0.90;84.10
77865;DHT22;67061;48.524;9.040;2023-03-01T07:03:09;-0.90;84.10
77865;DHT22;67061;48.524;9.040;2023-03-01T07:05:35;-0.90;84.30
77865;DHT22;67061;48.524;9.040;2023-03-01T07:08:03;-1.00;84.10
77865;DHT22;67061;48.524;9.040;2023-03-01T07:10:30;-1.00;84.40
77865;DHT22;67061;48.524;9.040;2023-03-01T07:12:57;-0.90;84.20
77865;DHT22;67061;48.524;9.040;2023-03-01T07:15:27;-0.90;83.40
77865;DHT22;67061;48.524;9.040;2023-03-01T07:17:54;-0.80;83.10
77865;DHT22;67061;48.524;9.040;2023-03-01T07:20:22;-0.80;83.40
77865;DHT22;67061;48.524;9.040;2023-03-01T07:22:50;-0.70;83.50
77865;DHT22;67061;48.524;9.040;2023-03-01T07:25:18;-0.70;83.40
77865;DHT22;67061;48.524;9.040;2023-03-01T07:27:49;-0.70;83.20
77865;DHT22;67061;48.524;9.040;2023-03-01T07:30:16;-0.70;83.10
77865;DHT22;67061;48.524;9.040;2023-03-01T07:32:44;-0.70;83.20
77865;DHT22;67061;48.524;9.040;2023-03-01T07:35:11;-0.70;83.00
77865;DHT22;67061;48.524;9.040;2023-03-01T07:37:40;-0.60;83.00
77865;DHT22;67061;48.524;9.040;2023-03-01T07:40:08;-0.60;82.80
77865;DHT22;67061;48.524;9.040;2023-03-01T07:42:35;-0.50;82.90
77865;DHT22;67061;48.524;9.040;2023-03-01T07:45:03;-0.50;82.30
77865;DHT22;67061;48.524;9.040;2023-03-01T07:47:30;-0.40;81.90
77865;DHT22;67061;48.524;9.040;2023-03-01T07:49:58;-0.40;81.60
77865;DHT22;67061;48.524;9.040;2023-03-01T07:52:26;-0.30;81.50
77865;DHT22;67061;48.524;9.040;2023-03-01T07:54:53;-0.30;81.60
77865;DHT22;67061;48.524;9.040;2023-03-01T07:57:20;-0.20;81.20
77865;DHT22;67061;48.524;9.040;2023-03-01T07:59:47;-0.20;81.00
77865;DHT22;67061;48.524;9.040;2023-03-01T08:02:14;-0.10;80.90
77865;DHT22;67061;48.524;9.040;2023-03-01T08:04:41;-0.10;80.70
77865;DHT22;67061;48.524;9.040;2023-03-01T08:07:10;-0.10;80.80
77865;DHT22;67061;48.524;9.040;2023-03-01T08:09:37;-0.10;80.50
77865;DHT22;67061;48.524;9.040;2023-03-01T08:12:05;0.00;80.50
77865;DHT22;67061;48.524;9.040;2023-03-01T08:14:32;0.00;80.30
77865;DHT22;67061;48.524;9.040;2023-03-01T08:16:59;0.10;79.60
77865;DHT22;67061;48.524;9.040;2023-03-01T08:19:29;0.20;79.30
77865;DHT22;67061;48.524;9.040;2023-03-01T08:21:56;0.30;78.90
77865;DHT22;67061;48.524;9.040;2023-03-01T08:24:25;0.20;78.80
77865;DHT22;67061;48.524;9.040;2023-03-01T08:26:52;0.20;79.00
77865;DHT22;67061;48.524;9.040;2023-03-01T08:29:19;0.20;78.90
77865;DHT22;67061;48.524;9.040;2023-03-01T08:31:47;0.30;79.00
77865;DHT22;67061;48.524;9.040;2023-03-01T08:34:17;0.40;78.60
77865;DHT22;67061;48.524;9.040;2023-03-01T08:36:45;0.20;78.20
77865;DHT22;67061;48.524;9.040;2023-03-01T08:39:14;0.30;78.50
77865;DHT22;67061;48.524;9.040;2023-03-01T08:41:43;0.30;78.40
77865;DHT22;67061;48.524;9.040;2023-03-01T08:44:12;0.50;78.50
77865;DHT22;67061;48.524;9.040;2023-03-01T08:46:40;0.50;78.20
77865;DHT22;67061;48.524;9.040;2023-03-01T08:49:08;0.50;77.50
77865;DHT22;67061;48.524;9.040;2023-03-01T08:51:36;0.50;77.80
77865;DHT22;67061;48.524;9.040;2023-03-01T08:54:04;0.50;77.80
77865;DHT22;67061;48.524;9.040;2023-03-01T08:56:31;0.60;77.80
77865;DHT22;67061;48.524;9.040;2023-03-01T08:59:00;0.60;77.60
77865;DHT22;67061;48.524;9.040;2023-03-01T09:01:27;0.60;77.30
77865;DHT22;67061;48.524;9.040;2023-03-01T09:03:54;0.80;77.40
77865;DHT22;67061;48.524;9.040;2023-03-01T09:06:21;0.80;76.00
77865;DHT22;67061;48.524;9.040;2023-03-01T09:08:49;0.80;76.60
77865;DHT22;67061;48.524;9.040;2023-03-01T09:11:18;0.90;76.00
77865;DHT22;67061;48.524;9.040;2023-03-01T09:13:46;1.00;76.10
77865;DHT22;67061;48.524;9.040;2023-03-01T09:16:19;1.00;75.30
77865;DHT22;67061;48.524;9.040;2023-03-01T09:18:49;1.00;75.80
77865;DHT22;67061;48.524;9.040;2023-03-01T09:21:17;1.20;75.10
77865;DHT22;67061;48.524;9.040;2023-03-01T09:23:47;1.20;74.10
77865;DHT22;67061;48.524;9.040;2023-03-01T09:26:16;1.30;74.50
77865;DHT22;67061;48.524;9.040;2023-03-01T09:28:45;1.40;73.90
77865;DHT22;67061;48.524;9.040;2023-03-01T09:31:14;1.50;73.20
77865;DHT22;67061;48.524;9.040;2023-03-01T09:33:42;1.60;72.80
77865;DHT22;67061;48.524;9.040;2023-03-01T09:36:12;1.60;72.60
77865;DHT22;67061;48.524;9.040;2023-03-01T09:38:39;1.60;72.60
77865;DHT22;67061;48.524;9.040;2023-03-01T09:41:11;1.70;72.00
77865;DHT22;67061;48.524;9.040;2023-03-01T09:43:49;1.70;71.10
77865;DHT22;67061;48.524;9.040;2023-03-01T09:46:22;1.70;71.60
77865;DHT22;67061;48.524;9.040;2023-03-01T09:48:52;1.80;71.30
77865;DHT22;67061;48.524;9.040;2023-03-01T09:51:26;1.70;71.90
77865;DHT22;67061;48.524;9.040;2023-03-01T09:53:53;1.80;71.80
77865;DHT22;67061;48.524;9.040;2023-03-01T09:56:27;1.90;71.10
77865;DHT22;67061;48.524;9.040;2023-03-01T09:59:01;1.90;71.20
77865;DHT22;67061;48.524;9.040;2023-03-01T10:01:40;2.00;71.40
77865;DHT22;67061;48.524;9.040;2023-03-01T10:04:27;2.00;71.50
77865;DHT22;67061;48.524;9.040;2023-03-01T10:07:07;2.00;70.80
77865;DHT22;67061;48.524;9.040;2023-03-01T10:09:41;2.10;70.90
77865;DHT22;67061;48.524;9.040;2023-03-01T10:12:11;2.20;70.30
77865;DHT22;67061;48.524;9.040;2023-03-01T10:14:43;2.40;70.20
77865;DHT22;67061;48.524;9.040;2023-03-01T10:17:24;2.40;69.00
77865;DHT22;67061;48.524;9.040;2023-03-01T10:19:52;2.30;69.50
77865;DHT22;67061;48.524;9.040;2023-03-01T10:22:28;2.30;69.40
77865;DHT22;67061;48.524;9.040;2023-03-01T10:24:58;2.40;70.10
77865;DHT22;67061;48.524;9.040;2023-03-01T10:27:29;2.50;69.40
77865;DHT22;67061;48.524;9.040;2023-03-01T10:30:09;2.50;69.20
77865;DHT22;67061;48.524;9.040;2023-03-01T10:32:40;2.50;69.70
77865;DHT22;67061;48.524;9.040;2023-03-01T10:35:16;2.70;68.80
77865;DHT22;67061;48.524;9.040;2023-03-01T10:37:57;2.60;68.60
77865;DHT22;67061;48.524;9.040;2023-03-01T10:40:24;2.60;69.00
77865;DHT22;67061;48.524;9.040;2023-03-01T10:42:51;2.80;68.90
77865;DHT22;67061;48.524;9.040;2023-03-01T10:45:31;2.80;68.60
77865;DHT22;67061;48.524;9.040;2023-03-01T10:48:06;3.00;68.30
77865;DHT22;67061;48.524;9.040;2023-03-01T10:50:37;3.10;68.70
77865;DHT22;67061;48.524;9.040;2023-03-01T10:53:20;3.00;67.90
77865;DHT22;67061;48.524;9.040;2023-03-01T10:55:47;3.10;68.90
77865;DHT22;67061;48.524;9.040;2023-03-01T10:58:22;3.30;67.10
77865;DHT22;67061;48.524;9.040;2023-03-01T11:00:51;3.30;68.00
77865;DHT22;67061;48.524;9.040;2023-03-01T11:03:22;3.30;67.50
77865;DHT22;67061;48.524;9.040;2023-03-01T11:05:55;3.30;68.10
77865;DHT22;67061;48.524;9.040;2023-03-01T11:08:40;3.40;67.30
77865;DHT22;67061;48.524;9.040;2023-03-01T11:11:25;3.30;66.90
77865;DHT22;67061;48.524;9.040;2023-03-01T11:13:57;3.50;67.80
77865;DHT22;67061;48.524;9.040;2023-03-01T11:16:28;3.90;67.00
77865;DHT22;67061;48.524;9.040;2023-03-01T11:19:04;4.10;65.80
77865;DHT22;67061;48.524;9.040;2023-03-01T11:21:43;4.10;65.40
77865;DHT22;67061;48.524;9.040;2023-03-01T11:24:12;4.30;65.60
77865;DHT22;67061;48.524;9.040;2023-03-01T11:26:43;4.20;65.30
77865;DHT22;67061;48.524;9.040;2023-03-01T11:29:17;4.20;64.40
77865;DHT22;67061;48.524;9.040;2023-03-01T11:31:48;4.20;65.20
77865;DHT22;67061;48.524;9.040;2023-03-01T11:34:20;4.30;64.70
77865;DHT22;67061;48.524;9.040;2023-03-01T11:36:53;4.40;64.70
77865;DHT22;67061;48.524;9.040;2023-03-01T11:39:31;4.80;63.90
77865;DHT22;67061;48.524;9.040;2023-03-01T11:42:05;5.00;62.60
77865;DHT22;67061;48.524;9.040;2023-03-01T11:44:37;5.00;61.80
77865;DHT22;67061;48.524;9.040;2023-03-01T11:47:24;5.10;61.80
77865;DHT22;67061;48.524;9.040;2023-03-01T11:50:21;5.40;60.90
77865;DHT22;67061;48.524;9.040;2023-03-01T11:53:03;5.00;62.50
77865;DHT22;67061;48.524;9.040;2023-03-01T11:55:45;5.30;61.50
77865;DHT22;67061;48.524;9.040;2023-03-01T11:58:27;5.30;60.90
77865;DHT22;67061;48.524;9.040;2023-03-01T12:01:15;5.60;60.40
77865;DHT22;67061;48.524;9.040;2023-03-01T12:04:07;6.50;58.20
77865;DHT22;67061;48.524;9.040;2023-03-01T12:06:49;6.30;56.70
77865;DHT22;67061;48.524;9.040;2023-03-01T12:12:33;6.30;57.60
77865;DHT22;67061;48.524;9.040;2023-03-01T12:18:18;7.50;54.50
77865;DHT22;67061;48.524;9.040;2023-03-01T12:20:54;7.50;54.30
77865;DHT22;67061;48.524;9.040;2023-03-01T12:23:35;8.20;53.70
77865;DHT22;67061;48.524;9.040;2023-03-01T12:26:12;8.60;52.30
77865;DHT22;67061;48.524;9.040;2023-03-01T12:29:14;8.50;50.70
77865;DHT22;67061;48.524;9.040;2023-03-01T12:35:12;8.80;50.20
77865;DHT22;67061;48.524;9.040;2023-03-01T12:37:56;8.20;51.70
77865;DHT22;67061;48.524;9.040;2023-03-01T12:43:36;8.40;51.20
77865;DHT22;67061;48.524;9.040;2023-03-01T12:46:15;8.90;51.50
77865;DHT22;67061;48.524;9.040;2023-03-01T12:48:52;9.50;49.10
77865;DHT22;67061;48.524;9.040;2023-03-01T12:51:25;10.10;47.90
77865;DHT22;67061;48.524;9.040;2023-03-01T12:53:55;10.30;46.80
77865;DHT22;67061;48.524;9.040;2023-03-01T12:56:25;9.60;47.60
77865;DHT22;67061;48.524;9.040;2023-03-01T12:59:01;9.20;49.60
77865;DHT22;67061;48.524;9.040;2023-03-01T13:01:48;9.10;49.20
77865;DHT22;67061;48.524;9.040;2023-03-01T13:04:27;8.40;50.30
77865;DHT22;67061;48.524;9.040;2023-03-01T13:07:15;8.10;51.40
77865;DHT22;67061;48.524;9.040;2023-03-01T13:09:51;8.20;52.50
77865;DHT22;67061;48.524;9.040;2023-03-01T13:12:44;8.10;51.70
77865;DHT22;67061;48.524;9.040;2023-03-01T13:15:31;8.70;50.90
77865;DHT22;67061;48.524;9.040;2023-03-01T13:18:00;9.20;49.70
77865;DHT22;67061;48.524;9.040;2023-03-01T13:20:31;9.40;48.70
77865;DHT22;67061;48.524;9.040;2023-03-01T13:23:09;9.40;49.70
77865;DHT22;67061;48.524;9.040;2023-03-01T13:28:54;9.50;48.90
77865;DHT22;67061;48.524;9.040;2023-03-01T13:34:53;9.00;50.40
77865;DHT22;67061;48.524;9.040;2023-03-01T13:37:23;9.90;48.20
77865;DHT22;67061;48.524;9.040;2023-03-01T13:39:51;9.40;48.30
77865;DHT22;67061;48.524;9.040;2023-03-01T13:42:41;9.00;49.40
77865;DHT22;67061;48.524;9.040;2023-03-01T13:45:25;8.50;49.60
77865;DHT22;67061;48.524;9.040;2023-03-01T13:48:02;8.40;50.80
77865;DHT22;67061;48.524;9.040;2023-03-01T13:50:36;9.10;49.50
77865;DHT22;67061;48.524;9.040;2023-03-01T13:53:06;9.40;48.60
77865;DHT22;67061;48.524;9.040;2023-03-01T13:55:37;9.40;47.50
77865;DHT22;67061;48.524;9.040;2023-03-01T13:58:15;9.00;49.00
77865;DHT22;67061;48.524;9.040;2023-03-01T14:00:42;9.00;49.00
77865;DHT22;67061;48.524;9.040;2023-03-01T14:03:11;8.90;49.90
77865;DHT22;67061;48.524;9.040;2023-03-01T14:05:41;8.50;49.60
77865;DHT22;67061;48.524;9.040;2023-03-01T14:08:22;8.20;50.20
77865;DHT22;67061;48.524;9.040;2023-03-01T14:16:55;8.50;51.20
77865;DHT22;67061;48.524;9.040;2023-03-01T14:19:27;9.00;48.70
77865;DHT22;67061;48.524;9.040;2023-03-01T14:22:11;8.80;49.10
77865;DHT22;67061;48.524;9.040;2023-03-01T14:24:44;8.10;49.70
77865;DHT22;67061;48.524;9.040;2023-03-01T14:27:13;7.80;50.50
77865;DHT22;67061;48.524;9.040;2023-03-01T14:29:41;7.50;52.30
77865;DHT22;67061;48.524;9.040;2023-03-01T14:32:12;7.30;52.50
77865;DHT22;67061;48.524;9.040;2023-03-01T14:34:45;7.00;53.10
77865;DHT22;67061;48.524;9.040;2023-03-01T14:37:20;7.20;53.00
77865;DHT22;67061;48.524;9.040;2023-03-01T14:39:47;6.90;53.10
77865;DHT22;67061;48.524;9.040;2023-03-01T14:42:15;6.90;53.80
77865;DHT22;67061;48.524;9.040;2023-03-01T14:44:45;6.90;53.90
77865;DHT22;67061;48.524;9.040;2023-03-01T14:47:14;6.90;54.20
77865;DHT22;67061;48.524;9.040;2023-03-01T14:49:43;6.90;53.70
77865;DHT22;67061;48.524;9.040;2023-03-01T14:52:21;7.00;54.10
77865;DHT22;67061;48.524;9.040;2023-03-01T14:54:51;7.00;54.00
77865;DHT22;67061;48.524;9.040;2023-03-01T14:57:20;7.00;53.50
77865;DHT22;67061;48.524;9.040;2023-03-01T14:59:49;7.00;54.00
77865;DHT22;67061;48.524;9.040;2023-03-01T15:02:20;6.90;54.00
77865;DHT22;67061;48.524;9.040;2023-03-01T15:04:50;6.90;54.30
77865;DHT22;67061;48.524;9.040;2023-03-01T15:07:19;6.90;54.10
77865;DHT22;67061;48.524;9.040;2023-03-01T15:09:46;6.90;54.30
77865;DHT22;67061;48.524;9.040;2023-03-01T15:12:35;7.00;54.20
77865;DHT22;67061;48.524;9.040;2023-03-01T15:15:34;6.90;54.30
77865;DHT22;67061;48.524;9.040;2023-03-01T15:18:04;6.90;54.50
77865;DHT22;67061;48.524;9.040;2023-03-01T15:20:33;7.00;54.10
77865;DHT22;67061;48.524;9.040;2023-03-01T15:23:03;6.90;53.90
77865;DHT22;67061;48.524;9.040;2023-03-01T15:25:31;6.90;54.40
77865;DHT22;67061;48.524;9.040;2023-03-01T15:28:00;6.90;54.10
77865;DHT22;67061;48.524;9.040;2023-03-01T15:30:30;6.90;54.10
77865;DHT22;67061;48.524;9.040;2023-03-01T15:33:34;6.80;54.80
77865;DHT22;67061;48.524;9.040;2023-03-01T15:36:04;6.80;54.60
77865;DHT22;67061;48.524;9.040;2023-03-01T15:38:53;6.80;54.50
77865;DHT22;67061;48.524;9.040;2023-03-01T15:41:24;6.70;54.80
77865;DHT22;67061;48.524;9.040;2023-03-01T15:43:51;6.60;55.10
77865;DHT22;67061;48.524;9.040;2023-03-01T15:46:24;6.60;55.00
77865;DHT22;67061;48.524;9.040;2023-03-01T15:48:53;6.60;55.40
77865;DHT22;67061;48.524;9.040;2023-03-01T15:51:32;6.60;55.70
77865;DHT22;67061;48.524;9.040;2023-03-01T15:54:04;6.50;55.50
77865;DHT22;67061;48.524;9.040;2023-03-01T15:56:31;6.50;55.70
77865;DHT22;67061;48.524;9.040;2023-03-01T15:59:00;6.50;55.90
77865;DHT22;67061;48.524;9.040;2023-03-01T16:01:27;6.40;55.80
77865;DHT22;67061;48.524;9.040;2023-03-01T16:03:55;6.30;55.80
77865;DHT22;67061;48.524;9.040;2023-03-01T16:06:24;6.30;56.00
77865;DHT22;67061;48.524;9.040;2023-03-01T16:08:51;6.20;56.20
77865;DHT22;67061;48.524;9.040;2023-03-01T16:11:20;6.20;56.40
77865;DHT22;67061;48.524;9.040;2023-03-01T16:13:47;6.10;56.80
77865;DHT22;67061;48.524;9.040;2023-03-01T16:16:16;6.10;56.70
77865;DHT22;67061;48.524;9.040;2023-03-01T16:18:44;6.10;56.70
77865;DHT22;67061;48.524;9.040;2023-03-01T16:21:19;6.00;56.50
77865;DHT22;67061;48.524;9.040;2023-03-01T16:23:46;6.00;57.00
77865;DHT22;67061;48.524;9.040;2023-03-01T16:26:13;5.90;56.80